Time;durP1;ratioP1;P1;durP2;ratioP2;P2;SDS_P1;SDS_P2;PMS_P1;PMS_P2;Temp;Humidity;BMP_temperature;BMP_pressure;BME280_temperature;BME280_humidity;BME280_pressure;Samples;Min_cycle;Max_cycle;Signal;HPM_P1;HPM_P2
2022/03/23 00:02:12;;;;;;;0.47;0.47;;;6.80;4.80;;;;;;5017959;28;20124;-70
2022/03/23 00:04:39;;;;;;;0.77;0.77;;;6.80;3.00;;;;;;5017746;28;20044;-70
2022/03/23 00:07:05;;;;;;;0.90;0.65;;;6.90;3.90;;;;;;5017590;28;20034;-70
2022/03/23 00:09:31;;;;;;;0.30;0.30;;;6.90;1.00;;;;;;5017673;28;20038;-70
2022/03/23 00:11:56;;;;;;;0.52;0.50;;;6.90;1.60;;;;;;5017517;28;20068;-70
2022/03/23 00:14:23;;;;;;;0.45;0.45;;;6.90;5.10;;;;;;5017493;28;20050;-70
2022/03/23 00:16:49;;;;;;;0.68;0.68;;;6.90;1.00;;;;;;5017771;28;20099;-70
2022/03/23 00:19:17;;;;;;;0.57;0.57;;;6.90;1.00;;;;;;5016881;28;20496;-70
2022/03/23 00:21:43;;;;;;;1.52;0.73;;;6.90;1.00;;;;;;5017238;28;20038;-70
2022/03/23 00:24:09;;;;;;;0.75;0.75;;;6.80;1.90;;;;;;5017420;28;20049;-70
2022/03/23 00:26:35;;;;;;;0.70;0.40;;;6.80;3.70;;;;;;5016934;28;20045;-70
2022/03/23 00:29:02;;;;;;;0.20;0.20;;;6.80;2.40;;;;;;5016728;28;20042;-70
2022/03/23 00:31:27;;;;;;;0.35;0.35;;;6.80;4.30;;;;;;5017206;28;20061;-70
2022/03/23 00:33:54;;;;;;;0.93;0.85;;;6.80;1.00;;;;;;5016965;28;20574;-70
2022/03/23 00:36:24;;;;;;;0.17;0.17;;;6.90;1.00;;;;;;5016571;28;20038;-70
2022/03/23 00:38:50;;;;;;;0.22;0.22;;;6.90;1.00;;;;;;5016529;28;20522;-70
2022/03/23 00:41:16;;;;;;;0.43;0.43;;;6.80;1.00;;;;;;5016445;28;20040;-70
2022/03/23 00:43:42;;;;;;;0.28;0.28;;;6.90;1.00;;;;;;5016449;28;20565;-70
2022/03/23 00:46:08;;;;;;;0.73;0.73;;;7.00;1.00;;;;;;5016398;28;20038;-70
2022/03/23 00:48:34;;;;;;;0.32;0.32;;;7.10;1.00;;;;;;5016534;28;20372;-70
2022/03/23 00:51:00;;;;;;;0.55;0.55;;;7.00;1.00;;;;;;5016660;28;20117;-70
2022/03/23 00:53:26;;;;;;;0.30;0.30;;;7.10;1.00;;;;;;5016604;28;20045;-70
2022/03/23 00:55:52;;;;;;;0.20;0.20;;;6.90;1.00;;;;;;5016263;28;20490;-70
2022/03/23 00:58:18;;;;;;;0.20;0.20;;;6.90;1.00;;;;;;5016326;28;20072;-70
2022/03/23 01:00:45;;;;;;;1.65;0.98;;;7.00;1.00;;;;;;5016235;28;20069;-70
2022/03/23 01:03:12;;;;;;;1.02;1.02;;;7.00;1.00;;;;;;5016037;28;20042;-70
2022/03/23 01:05:38;;;;;;;0.45;0.45;;;7.00;1.00;;;;;;5016293;28;20046;-70
2022/03/23 01:08:04;;;;;;;1.00;1.00;;;7.00;1.00;;;;;;5015808;28;20029;-70
2022/03/23 01:10:32;;;;;;;0.25;0.25;;;7.10;1.00;;;;;;5016822;28;20041;-70
2022/03/23 01:12:58;;;;;;;0.38;0.38;;;7.00;1.00;;;;;;5016128;28;20145;-70
2022/03/23 01:15:24;;;;;;;0.75;0.75;;;6.90;1.00;;;;;;5016136;28;20038;-70
2022/03/23 01:17:50;;;;;;;1.10;0.88;;;6.90;1.00;;;;;;5016141;28;20052;-70
2022/03/23 01:20:19;;;;;;;1.08;0.73;;;6.90;1.00;;;;;;5016092;28;20038;-70
2022/03/23 01:22:45;;;;;;;2.17;0.47;;;6.80;1.00;;;;;;5016023;28;20488;-69
2022/03/23 01:25:12;;;;;;;0.30;0.30;;;6.70;1.00;;;;;;5016036;28;20101;-70
2022/03/23 01:27:39;;;;;;;1.33;1.20;;;6.70;1.00;;;;;;5015815;28;20046;-70
2022/03/23 01:30:08;;;;;;;0.30;0.30;;;6.80;1.00;;;;;;5015620;28;20038;-70
2022/03/23 01:32:35;;;;;;;0.10;0.10;;;6.70;1.00;;;;;;5016276;28;20038;-70
2022/03/23 01:35:03;;;;;;;0.30;0.30;;;6.70;1.00;;;;;;5015802;28;20038;-70
2022/03/23 01:37:29;;;;;;;0.32;0.32;;;6.60;1.00;;;;;;5015856;28;20045;-70
2022/03/23 01:39:55;;;;;;;0.20;0.20;;;6.60;1.00;;;;;;5015437;28;20069;-70
2022/03/23 01:42:21;;;;;;;0.73;0.68;;;6.60;1.00;;;;;;5015723;28;20041;-70
2022/03/23 01:44:46;;;;;;;4.30;1.13;;;6.50;1.00;;;;;;5015639;28;20052;-70
2022/03/23 01:47:16;;;;;;;2.03;1.92;;;6.50;1.00;;;;;;5015297;28;20076;-70
2022/03/23 01:49:54;;;;;;;0.40;0.40;;;6.50;1.00;;;;;;5015239;28;20112;-70
2022/03/23 01:52:23;;;;;;;0.47;0.47;;;6.50;1.00;;;;;;5015405;28;20041;-70
2022/03/23 01:54:49;;;;;;;0.32;0.32;;;6.40;1.00;;;;;;5015425;28;20061;-70
2022/03/23 01:57:16;;;;;;;1.10;0.60;;;6.40;1.00;;;;;;5015771;28;20112;-70
2022/03/23 01:59:43;;;;;;;0.35;0.35;;;6.30;1.00;;;;;;5015381;28;20037;-70
2022/03/23 02:02:09;;;;;;;0.50;0.50;;;6.20;1.00;;;;;;5014678;28;20045;-70
2022/03/23 02:04:35;;;;;;;0.52;0.52;;;6.20;1.00;;;;;;5015221;28;20045;-70
2022/03/23 02:07:03;;;;;;;1.02;0.73;;;6.10;1.00;;;;;;5015509;28;20046;-70
2022/03/23 02:09:30;;;;;;;0.57;0.57;;;6.10;1.00;;;;;;5015012;28;20050;-70
2022/03/23 02:11:57;;;;;;;0.60;0.60;;;6.00;1.00;;;;;;5014835;28;20041;-70
2022/03/23 02:14:23;;;;;;;0.40;0.40;;;6.00;1.00;;;;;;5014880;28;20041;-70
2022/03/23 02:16:51;;;;;;;1.33;1.23;;;6.10;1.00;;;;;;5015103;28;20080;-70
2022/03/23 02:19:19;;;;;;;0.55;0.55;;;6.00;1.00;;;;;;5014589;28;20125;-70
2022/03/23 02:21:55;;;;;;;0.30;0.28;;;6.00;1.00;;;;;;5015266;28;20088;-70
2022/03/23 02:24:28;;;;;;;0.57;0.45;;;5.90;1.00;;;;;;5015032;28;20053;-70
2022/03/23 02:26:56;;;;;;;0.82;0.82;;;5.90;1.00;;;;;;5014717;28;20066;-70
2022/03/23 02:29:24;;;;;;;0.35;0.35;;;5.90;1.00;;;;;;5014974;28;20121;-70
2022/03/23 02:31:50;;;;;;;0.63;0.63;;;5.80;1.00;;;;;;5015483;28;20030;-70
2022/03/23 02:34:17;;;;;;;1.05;0.95;;;5.80;1.00;;;;;;5014807;28;20099;-70
2022/03/23 02:36:43;;;;;;;0.63;0.63;;;5.70;1.00;;;;;;5014809;28;20099;-70
2022/03/23 02:39:09;;;;;;;0.10;0.10;;;5.70;6.40;;;;;;5014857;28;20510;-69
2022/03/23 02:41:35;;;;;;;0.57;0.57;;;5.60;1.00;;;;;;5014415;28;20037;-70
2022/03/23 02:44:01;;;;;;;1.23;0.95;;;5.40;7.50;;;;;;5014544;28;20057;-70
2022/03/23 02:46:28;;;;;;;0.20;0.20;;;5.40;18.70;;;;;;5014818;28;20121;-70
2022/03/23 02:48:54;;;;;;;1.75;0.55;;;5.30;18.60;;;;;;5014516;28;20038;-70
2022/03/23 02:51:20;;;;;;;0.28;0.28;;;5.20;21.10;;;;;;5015293;28;20049;-69
2022/03/23 03:02:32;;;;;;;0.55;0.55;;;5.20;23.60;;;;;;5014165;28;20134;-69
2022/03/23 03:04:58;;;;;;;3.00;0.95;;;5.00;30.00;;;;;;5014623;28;20488;-69
2022/03/23 03:07:23;;;;;;;2.53;0.40;;;5.00;27.70;;;;;;5014604;28;20045;-70
2022/03/23 03:09:49;;;;;;;0.10;0.10;;;5.10;34.40;;;;;;5014280;28;20553;-70
2022/03/23 03:12:16;;;;;;;0.20;0.20;;;5.10;42.20;;;;;;5014603;28;20049;-70
2022/03/23 03:14:42;;;;;;;0.32;0.30;;;5.00;41.20;;;;;;5014790;28;20038;-70
2022/03/23 03:17:08;;;;;;;1.20;1.10;;;4.90;30.90;;;;;;5014809;28;20045;-70
2022/03/23 03:19:37;;;;;;;0.13;0.13;;;5.00;37.70;;;;;;5014523;28;20040;-70
2022/03/23 03:22:05;;;;;;;0.20;0.20;;;4.90;46.40;;;;;;5014391;28;20037;-70
2022/03/23 03:24:30;;;;;;;0.20;0.20;;;4.90;42.70;;;;;;5014621;28;20498;-70
2022/03/23 03:26:56;;;;;;;0.50;0.50;;;4.80;44.20;;;;;;5014552;28;20112;-70
2022/03/23 03:29:23;;;;;;;0.35;0.35;;;4.70;47.70;;;;;;5014685;28;20044;-70
2022/03/23 03:31:50;;;;;;;0.30;0.30;;;4.70;63.60;;;;;;5016030;28;20041;-70
2022/03/23 03:34:15;;;;;;;1.02;0.45;;;4.70;65.50;;;;;;5018577;28;20046;-70
2022/03/23 03:36:41;;;;;;;0.55;0.55;;;4.70;65.50;;;;;;5018487;28;20038;-70
2022/03/23 03:39:08;;;;;;;1.08;0.63;;;4.60;58.80;;;;;;5018216;28;20034;-70
2022/03/23 03:41:35;;;;;;;1.65;0.70;;;4.60;64.90;;;;;;5018140;28;20041;-70
2022/03/23 03:44:01;;;;;;;0.50;0.50;;;4.70;64.50;;;;;;5018193;28;20072;-70
2022/03/23 03:46:27;;;;;;;0.73;0.73;;;4.60;78.50;;;;;;5018699;28;20534;-70
2022/03/23 03:48:53;;;;;;;0.10;0.10;;;4.60;74.90;;;;;;5018105;28;20030;-70
2022/03/23 03:51:19;;;;;;;0.13;0.13;;;4.50;77.50;;;;;;5017798;28;20566;-70
2022/03/23 03:53:45;;;;;;;0.32;0.32;;;4.60;79.30;;;;;;5017765;28;20050;-70
2022/03/23 03:56:11;;;;;;;0.40;0.40;;;4.60;83.80;;;;;;5017954;28;20041;-70
2022/03/23 03:58:38;;;;;;;0.55;0.55;;;4.70;84.60;;;;;;5017561;28;20033;-70
2022/03/23 04:01:04;;;;;;;0.35;0.30;;;4.60;87.50;;;;;;5017892;28;20533;-70
2022/03/23 04:03:29;;;;;;;0.68;0.63;;;4.60;90.50;;;;;;5000295;28;20115;-70
2022/03/23 04:05:55;;;;;;;0.55;0.52;;;4.50;95.90;;;;;;5017514;28;20041;-70
2022/03/23 04:08:21;;;;;;;0.38;0.30;;;4.70;92.50;;;;;;5017754;28;20142;-70
2022/03/23 04:10:47;;;;;;;0.10;0.10;;;4.60;92.10;;;;;;5018291;28;20038;-70
2022/03/23 04:13:12;;;;;;;1.40;1.30;;;4.60;95.70;;;;;;5017492;28;20057;-70
2022/03/23 04:15:38;;;;;;;0.20;0.20;;;4.50;96.40;;;;;;5017357;28;20088;-70
2022/03/23 04:18:05;;;;;;;0.35;0.35;;;4.50;98.60;;;;;;5017299;28;20045;-70
2022/03/23 04:20:32;;;;;;;0.20;0.20;;;4.50;99.90;;;;;;5017149;28;20120;-70
2022/03/23 04:22:58;;;;;;;1.65;0.60;;;4.50;99.90;;;;;;5017722;28;20045;-70
2022/03/23 04:25:24;;;;;;;0.57;0.57;;;4.60;99.90;;;;;;5017125;28;20044;-70
2022/03/23 04:27:51;;;;;;;0.35;0.35;;;4.50;99.90;;;;;;5016925;28;20128;-70
2022/03/23 04:30:19;;;;;;;0.57;0.57;;;4.60;99.90;;;;;;5017356;28;20029;-70
2022/03/23 04:32:46;;;;;;;0.50;0.50;;;4.50;99.90;;;;;;5017671;28;20124;-70
2022/03/23 04:35:12;;;;;;;0.82;0.82;;;4.60;99.90;;;;;;5017144;28;20034;-70
2022/03/23 04:37:42;;;;;;;0.30;0.30;;;4.60;99.90;;;;;;5017480;28;20042;-70
2022/03/23 04:40:09;;;;;;;2.38;1.85;;;4.60;99.90;;;;;;5017077;28;20132;-69
2022/03/23 04:42:40;;;;;;;0.40;0.40;;;4.70;99.90;;;;;;5016187;28;20064;-69
2022/03/23 04:45:10;;;;;;;0.70;0.70;;;4.70;99.90;;;;;;5016800;28;20120;-70
2022/03/23 04:47:39;;;;;;;1.80;1.23;;;4.80;98.60;;;;;;5016707;28;20034;-70
2022/03/23 04:50:08;;;;;;;0.30;0.30;;;4.80;90.20;;;;;;5016899;28;20438;-70
2022/03/23 04:52:35;;;;;;;0.10;0.10;;;4.80;97.40;;;;;;5016265;28;20046;-70
2022/03/23 04:55:01;;;;;;;0.40;0.40;;;4.80;95.20;;;;;;5016847;28;20514;-70
2022/03/23 04:57:28;;;;;;;0.35;0.35;;;4.90;99.90;;;;;;5016340;28;20033;-70
2022/03/23 04:59:55;;;;;;;0.88;0.88;;;4.90;95.80;;;;;;5016416;28;20040;-70
2022/03/23 05:02:20;;;;;;;0.30;0.30;;;4.80;92.60;;;;;;5016396;28;20069;-69
2022/03/23 05:04:46;;;;;;;0.50;0.50;;;4.90;94.70;;;;;;5016635;28;20065;-70
2022/03/23 05:07:13;;;;;;;0.40;0.40;;;4.90;97.00;;;;;;5005531;28;20038;-69
2022/03/23 05:09:41;;;;;;;1.17;1.02;;;4.90;94.60;;;;;;5003796;28;20570;-70
2022/03/23 05:12:07;;;;;;;0.63;0.63;;;4.80;94.50;;;;;;5004957;28;20066;-70
2022/03/23 05:14:34;;;;;;;1.00;1.00;;;4.90;94.80;;;;;;5005164;28;20042;-70
2022/03/23 05:17:01;;;;;;;0.55;0.55;;;4.80;98.00;;;;;;5003387;28;20512;-70
2022/03/23 05:19:27;;;;;;;0.65;0.65;;;4.90;93.50;;;;;;5005212;28;20041;-70
2022/03/23 05:21:53;;;;;;;0.20;0.20;;;4.90;93.60;;;;;;5004786;28;20092;-70
2022/03/23 05:24:22;;;;;;;0.68;0.68;;;4.90;95.60;;;;;;5003539;28;20034;-70
2022/03/23 05:26:51;;;;;;;1.27;1.27;;;5.00;93.90;;;;;;5004807;28;20042;-69
2022/03/23 05:29:16;;;;;;;0.20;0.20;;;4.90;99.90;;;;;;5014149;28;20060;-69
2022/03/23 05:31:42;;;;;;;0.95;0.95;;;4.80;97.60;;;;;;5015342;28;20491;-69
2022/03/23 05:34:09;;;;;;;0.43;0.43;;;4.80;99.80;;;;;;5004426;28;20450;-69
2022/03/23 05:36:35;;;;;;;4.40;1.00;;;4.80;99.90;;;;;;5004810;28;20042;-69
2022/03/23 05:39:00;;;;;;;1.10;1.10;;;4.80;99.90;;;;;;4997549;28;20049;-70
2022/03/23 05:41:26;;;;;;;0.20;0.20;;;4.80;99.40;;;;;;4994249;28;20035;-69
2022/03/23 05:43:53;;;;;;;0.75;0.73;;;4.80;97.10;;;;;;4995034;28;20038;-69
2022/03/23 05:46:18;;;;;;;0.52;0.52;;;4.90;97.70;;;;;;4995182;28;20042;-69
2022/03/23 05:48:45;;;;;;;1.60;1.48;;;4.80;99.70;;;;;;4995984;28;20080;-70
2022/03/23 05:51:11;;;;;;;0.77;0.77;;;4.70;99.90;;;;;;4996218;28;20089;-70
2022/03/23 05:53:37;;;;;;;1.20;1.20;;;4.80;97.20;;;;;;4995029;28;20046;-70
2022/03/23 05:56:07;;;;;;;0.85;0.80;;;4.70;99.80;;;;;;4995350;28;20041;-70
2022/03/23 05:58:34;;;;;;;1.25;1.15;;;4.70;99.90;;;;;;5008968;28;20034;-70
2022/03/23 06:01:03;;;;;;;3.20;0.95;;;4.80;98.70;;;;;;5014319;28;20037;-70
2022/03/23 06:03:30;;;;;;;0.10;0.10;;;4.80;99.90;;;;;;5013871;28;20088;-70
2022/03/23 06:05:56;;;;;;;0.40;0.40;;;4.80;99.90;;;;;;5014822;28;20038;-70
2022/03/23 06:08:23;;;;;;;0.68;0.40;;;4.90;98.90;;;;;;5014896;28;20091;-70
2022/03/23 06:10:49;;;;;;;0.75;0.75;;;4.90;95.90;;;;;;5014819;28;20128;-70
2022/03/23 06:13:15;;;;;;;1.40;1.40;;;4.90;94.30;;;;;;5039196;28;20139;-70
2022/03/23 06:15:42;;;;;;;1.10;1.10;;;4.90;91.60;;;;;;5055001;28;20029;-70
2022/03/23 06:18:08;;;;;;;0.80;0.80;;;5.00;82.50;;;;;;5055115;28;20068;-70
2022/03/23 06:20:34;;;;;;;0.77;0.77;;;5.00;77.00;;;;;;5054709;28;20036;-70
2022/03/23 06:23:00;;;;;;;0.35;0.35;;;5.10;74.30;;;;;;5054870;28;20048;-70
2022/03/23 06:25:26;;;;;;;1.85;1.35;;;5.10;65.30;;;;;;5054653;28;20033;-70
2022/03/23 06:27:52;;;;;;;1.10;1.10;;;5.30;71.40;;;;;;5054582;28;20045;-70
2022/03/23 06:30:19;;;;;;;0.50;0.50;;;5.30;55.90;;;;;;5054880;28;20128;-70
2022/03/23 06:32:45;;;;;;;0.47;0.47;;;5.40;57.50;;;;;;5055132;28;20091;-70
2022/03/23 06:35:12;;;;;;;0.43;0.43;;;5.40;59.10;;;;;;5054532;28;20517;-70
2022/03/23 06:37:37;;;;;;;0.88;0.88;;;5.40;54.20;;;;;;5054510;28;20036;-70
2022/03/23 06:40:05;;;;;;;0.40;0.40;;;5.40;39.40;;;;;;5054777;28;20120;-70
2022/03/23 06:42:31;;;;;;;0.38;0.35;;;5.50;45.30;;;;;;5054921;28;20045;-70
2022/03/23 06:44:57;;;;;;;0.85;0.82;;;5.60;39.40;;;;;;5054989;28;20124;-70
2022/03/23 06:47:22;;;;;;;1.42;1.33;;;5.60;37.20;;;;;;5054334;28;20064;-70
2022/03/23 06:49:48;;;;;;;0.32;0.32;;;5.70;26.40;;;;;;5054923;28;20045;-70
2022/03/23 06:52:15;;;;;;;2.00;1.55;;;5.90;28.30;;;;;;5053984;28;20033;-70
2022/03/23 06:54:41;;;;;;;0.40;0.40;;;5.90;29.00;;;;;;5054294;28;20040;-70
2022/03/23 06:57:07;;;;;;;0.45;0.45;;;5.90;22.50;;;;;;5054631;28;20079;-70
2022/03/23 06:59:33;;;;;;;0.45;0.45;;;5.90;16.30;;;;;;5054373;28;20045;-70
2022/03/23 07:01:59;;;;;;;0.22;0.22;;;5.80;18.00;;;;;;5054810;28;20521;-70
2022/03/23 07:04:25;;;;;;;0.85;0.85;;;5.90;19.00;;;;;;5054410;28;20422;-70
2022/03/23 07:06:53;;;;;;;1.15;1.05;;;6.00;10.70;;;;;;5058080;28;20082;-70
2022/03/23 07:09:31;;;;;;;0.85;0.82;;;6.10;10.70;;;;;;5058221;28;20426;-70
2022/03/23 07:12:00;;;;;;;0.45;0.45;;;6.20;5.10;;;;;;5038109;28;20037;-71
2022/03/23 07:14:28;;;;;;;0.47;0.47;;;6.30;1.00;;;;;;5001272;28;20128;-71
2022/03/23 07:16:53;;;;;;;0.70;0.70;;;6.50;1.00;;;;;;5010020;28;20538;-70
2022/03/23 07:19:19;;;;;;;0.55;0.40;;;6.60;1.00;;;;;;5006689;28;20034;-70
2022/03/23 07:21:45;;;;;;;0.80;0.80;;;6.60;1.00;;;;;;4999116;28;20042;-70
2022/03/23 07:24:11;;;;;;;1.25;1.25;;;6.70;1.00;;;;;;4998626;28;20130;-70
2022/03/23 07:26:37;;;;;;;1.83;1.33;;;6.90;1.00;;;;;;5012784;28;20099;-72
2022/03/23 07:29:03;;;;;;;0.90;0.85;;;6.90;1.00;;;;;;5013137;28;20061;-71
2022/03/23 07:31:29;;;;;;;6.72;1.45;;;6.90;1.00;;;;;;5001417;28;20038;-72
2022/03/23 07:33:57;;;;;;;2.50;1.33;;;7.00;1.00;;;;;;5001027;28;20578;-71
2022/03/23 07:36:24;;;;;;;1.55;1.45;;;7.00;1.00;;;;;;4998654;28;20042;-71
2022/03/23 07:38:50;;;;;;;0.88;0.88;;;7.10;1.00;;;;;;4999335;28;20038;-71
2022/03/23 07:41:16;;;;;;;0.25;0.25;;;7.20;1.00;;;;;;4992245;28;20038;-71
2022/03/23 07:43:42;;;;;;;0.35;0.35;;;7.30;1.00;;;;;;5009099;28;20044;-70
2022/03/23 07:46:08;;;;;;;0.17;0.17;;;7.50;1.00;;;;;;5017734;28;20038;-71
2022/03/23 07:48:35;;;;;;;0.70;0.70;;;7.70;1.00;;;;;;5017446;28;20376;-70
2022/03/23 07:51:00;;;;;;;0.75;0.75;;;7.90;1.00;;;;;;5014502;28;20045;-71
2022/03/23 07:53:26;;;;;;;1.90;1.25;;;7.80;1.00;;;;;;5016401;28;20045;-71
2022/03/23 07:55:52;;;;;;;0.45;0.45;;;8.10;1.00;;;;;;5017429;28;20046;-70
2022/03/23 07:58:18;;;;;;;0.98;0.98;;;8.20;1.00;;;;;;4997819;28;20073;-71
2022/03/23 08:00:45;;;;;;;1.00;0.60;;;8.10;1.00;;;;;;4997437;28;20046;-70
2022/03/23 08:03:11;;;;;;;1.75;0.90;;;8.40;1.00;;;;;;5016699;28;20034;-70
2022/03/23 08:05:43;;;;;;;0.47;0.47;;;8.20;1.00;;;;;;5010772;28;20034;-70
2022/03/23 08:08:10;;;;;;;1.75;0.52;;;8.40;1.00;;;;;;5002919;28;20523;-70
2022/03/23 08:10:43;;;;;;;0.73;0.73;;;8.70;1.00;;;;;;5010633;28;20125;-70
2022/03/23 08:13:17;;;;;;;1.00;1.00;;;8.60;1.00;;;;;;5015083;28;20062;-71
2022/03/23 08:15:44;;;;;;;0.35;0.35;;;8.70;1.00;;;;;;5000402;28;20461;-70
2022/03/23 08:18:10;;;;;;;0.93;0.85;;;8.80;1.00;;;;;;5015094;28;20042;-70
2022/03/23 08:20:36;;;;;;;1.40;1.17;;;9.10;1.00;;;;;;5017575;28;20431;-70
2022/03/23 08:23:08;;;;;;;2.42;1.02;;;8.80;1.00;;;;;;5016235;28;20048;-70
2022/03/23 08:25:41;;;;;;;0.22;0.22;;;8.80;1.00;;;;;;5016550;28;20495;-70
2022/03/23 08:28:09;;;;;;;0.30;0.30;;;8.90;1.00;;;;;;5016399;28;20495;-71
2022/03/23 08:30:36;;;;;;;1.02;0.95;;;9.00;1.00;;;;;;5016184;28;20046;-71
2022/03/23 08:33:02;;;;;;;0.30;0.30;;;9.20;1.00;;;;;;5014233;28;20526;-69
2022/03/23 08:35:29;;;;;;;0.77;0.77;;;9.20;1.00;;;;;;4997557;28;20093;-70
2022/03/23 08:37:55;;;;;;;0.47;0.47;;;9.50;1.00;;;;;;4999897;28;20484;-70
2022/03/23 08:40:21;;;;;;;0.30;0.30;;;9.40;1.00;;;;;;5013268;28;20048;-69
2022/03/23 08:42:47;;;;;;;1.38;0.63;;;9.70;1.00;;;;;;5015658;28;20065;-72
2022/03/23 08:45:15;;;;;;;0.98;0.65;;;10.00;1.00;;;;;;5016175;28;20041;-72
2022/03/23 08:47:41;;;;;;;0.47;0.47;;;10.30;1.00;;;;;;5006109;28;20040;-70
2022/03/23 08:50:10;;;;;;;0.55;0.55;;;10.20;1.00;;;;;;5013454;28;20121;-70
2022/03/23 08:52:37;;;;;;;0.40;0.40;;;10.20;1.00;;;;;;5014928;28;20038;-70
2022/03/23 08:55:14;;;;;;;0.63;0.63;;;10.20;1.00;;;;;;5012128;28;20068;-70
2022/03/23 08:57:43;;;;;;;2.22;1.25;;;10.00;1.00;;;;;;5016171;28;20049;-70
2022/03/23 09:00:09;;;;;;;1.10;0.85;;;9.90;1.00;;;;;;5006921;28;20033;-70
2022/03/23 09:02:35;;;;;;;0.75;0.75;;;10.30;1.00;;;;;;5015154;28;20048;-69
2022/03/23 09:05:01;;;;;;;1.70;0.73;;;10.20;1.00;;;;;;5021806;28;20038;-70
2022/03/23 09:07:27;;;;;;;0.77;0.77;;;10.30;1.00;;;;;;5016073;28;20076;-71
2022/03/23 09:09:53;;;;;;;5.38;0.98;;;10.40;1.00;;;;;;5001799;28;20507;-70
2022/03/23 09:12:19;;;;;;;3.42;0.90;;;10.60;1.00;;;;;;4999106;28;20155;-69
2022/03/23 09:14:44;;;;;;;1.25;1.02;;;10.60;1.00;;;;;;4996358;28;20042;-70
2022/03/23 09:17:10;;;;;;;0.30;0.30;;;10.70;1.00;;;;;;5009664;28;20038;-70
2022/03/23 09:19:37;;;;;;;0.82;0.82;;;11.00;1.00;;;;;;5014756;28;20029;-70
2022/03/23 09:22:03;;;;;;;1.48;1.38;;;11.10;1.00;;;;;;5014228;28;20048;-70
2022/03/23 09:24:29;;;;;;;0.40;0.40;;;11.00;1.00;;;;;;5015730;28;20045;-70
2022/03/23 09:26:55;;;;;;;0.40;0.40;;;11.10;1.00;;;;;;5015512;28;20064;-70
2022/03/23 09:29:21;;;;;;;0.52;0.52;;;10.80;1.00;;;;;;5014774;28;20041;-70
2022/03/23 09:31:47;;;;;;;0.30;0.30;;;10.80;1.00;;;;;;5015020;28;20052;-70
2022/03/23 09:34:14;;;;;;;0.70;0.70;;;11.00;1.00;;;;;;5010181;28;20054;-70
2022/03/23 09:39:24;;;;;;;0.75;0.75;;;10.60;1.00;;;;;;5014997;28;20037;-70
2022/03/23 09:41:50;;;;;;;1.23;1.13;;;10.50;1.00;;;;;;5015168;28;20042;-70
2022/03/23 09:44:17;;;;;;;0.93;0.88;;;10.90;1.00;;;;;;5014831;28;20041;-70
2022/03/23 09:46:43;;;;;;;0.80;0.80;;;10.90;1.00;;;;;;5014729;28;20068;-70
2022/03/23 09:49:10;;;;;;;0.30;0.30;;;10.80;1.00;;;;;;5014804;28;20063;-70
2022/03/23 09:51:38;;;;;;;0.70;0.70;;;10.80;1.00;;;;;;5014958;28;20116;-70
2022/03/23 09:54:05;;;;;;;1.17;0.45;;;10.80;1.00;;;;;;5014599;28;20129;-70
2022/03/23 09:56:31;;;;;;;0.98;0.90;;;10.80;1.00;;;;;;5013727;28;20033;-70
2022/03/23 09:58:57;;;;;;;0.85;0.85;;;10.70;1.00;;;;;;5014438;28;20041;-70
2022/03/23 10:01:28;;;;;;;0.65;0.65;;;10.90;1.00;;;;;;5013779;28;20041;-70
2022/03/23 10:04:13;;;;;;;0.82;0.82;;;11.00;1.00;;;;;;5013123;28;20157;-70
2022/03/23 10:07:03;;;;;;;1.27;1.17;;;11.10;1.00;;;;;;5013781;28;20046;-70
2022/03/23 10:10:06;;;;;;;0.70;0.70;;;11.00;1.00;;;;;;5012463;28;20062;-70
2022/03/23 10:12:53;;;;;;;2.03;1.35;;;11.30;1.00;;;;;;4995227;28;20054;-70
2022/03/23 10:16:00;;;;;;;2.17;0.82;;;11.40;1.00;;;;;;5013267;28;20053;-70
2022/03/23 10:18:58;;;;;;;0.45;0.45;;;11.20;1.00;;;;;;5012637;28;20072;-70
2022/03/23 10:21:36;;;;;;;0.98;0.93;;;11.60;1.00;;;;;;5014425;28;20046;-70
2022/03/23 10:24:02;;;;;;;0.20;0.20;;;11.80;1.00;;;;;;5013015;28;20068;-70
2022/03/23 10:26:30;;;;;;;1.73;0.80;;;11.70;1.00;;;;;;5013172;28;20068;-70
2022/03/23 10:28:57;;;;;;;0.75;0.75;;;11.40;1.00;;;;;;5014127;28;20045;-70
2022/03/23 10:31:26;;;;;;;0.75;0.75;;;11.50;1.00;;;;;;5014383;28;20038;-70
2022/03/23 10:34:07;;;;;;;1.20;0.95;;;11.50;1.00;;;;;;5012916;28;20053;-70
2022/03/23 10:36:40;;;;;;;0.63;0.63;;;11.50;1.00;;;;;;5010337;28;20117;-70
2022/03/23 10:39:12;;;;;;;0.82;0.82;;;11.50;1.00;;;;;;5013401;28;20069;-70
2022/03/23 10:41:39;;;;;;;2.95;1.20;;;11.60;1.00;;;;;;5013224;28;20048;-70
2022/03/23 10:44:18;;;;;;;1.55;0.93;;;11.80;1.00;;;;;;5014120;28;20120;-70
2022/03/23 10:46:44;;;;;;;0.30;0.30;;;12.00;1.00;;;;;;5015244;28;20149;-70
2022/03/23 10:49:13;;;;;;;0.22;0.22;;;12.00;1.00;;;;;;5014437;28;20069;-70
2022/03/23 10:51:39;;;;;;;0.65;0.63;;;11.60;1.00;;;;;;5014873;28;20216;-70
2022/03/23 10:54:20;;;;;;;3.28;1.70;;;11.20;1.00;;;;;;5014826;28;20129;-70
2022/03/23 10:56:46;;;;;;;0.98;0.98;;;11.40;1.00;;;;;;5014608;28;20473;-70
2022/03/23 10:59:23;;;;;;;1.08;1.05;;;11.70;1.00;;;;;;5014445;28;20041;-70
2022/03/23 11:01:57;;;;;;;1.27;1.02;;;11.90;1.00;;;;;;5014279;28;20052;-70
2022/03/23 11:04:29;;;;;;;0.68;0.68;;;12.10;1.00;;;;;;5014489;28;20070;-70
2022/03/23 11:06:56;;;;;;;1.25;1.25;;;12.00;1.00;;;;;;5014222;28;20049;-70
2022/03/23 11:18:11;;;;;;;1.75;1.13;;;12.10;1.00;;;;;;5034141;28;20080;-70
2022/03/23 11:20:42;;;;;;;1.42;1.33;;;12.30;1.00;;;;;;5034828;28;20141;-70
2022/03/23 11:23:37;;;;;;;0.38;0.38;;;12.50;1.00;;;;;;5034046;28;20499;-69
2022/03/23 11:26:09;;;;;;;0.75;0.75;;;12.20;1.00;;;;;;5033790;28;20064;-70
2022/03/23 11:28:38;;;;;;;0.60;0.60;;;11.80;1.00;;;;;;5033968;28;20042;-70
2022/03/23 11:31:06;;;;;;;1.73;1.38;;;11.60;1.00;;;;;;5033921;28;20121;-70
2022/03/23 11:33:34;;;;;;;2.05;1.15;;;11.60;1.00;;;;;;5033974;28;20168;-70
2022/03/23 11:36:07;;;;;;;0.77;0.60;;;11.70;1.00;;;;;;5033968;28;20561;-70
2022/03/23 11:38:34;;;;;;;0.40;0.40;;;12.20;1.00;;;;;;5033643;28;20048;-70
2022/03/23 11:41:00;;;;;;;1.40;0.93;;;12.80;1.00;;;;;;5033667;28;20041;-69
2022/03/23 11:43:29;;;;;;;0.50;0.50;;;12.90;1.00;;;;;;5033816;28;20045;-69
2022/03/23 11:45:57;;;;;;;0.88;0.88;;;12.70;1.00;;;;;;5034127;28;20111;-70
2022/03/23 11:48:47;;;;;;;1.23;1.08;;;12.40;1.00;;;;;;5033929;28;20069;-69
2022/03/23 11:51:40;;;;;;;0.75;0.75;;;12.00;1.00;;;;;;5033970;28;20068;-69
2022/03/23 11:57:21;;;;;;;0.75;0.75;;;11.80;1.00;;;;;;5037285;28;20084;-70
2022/03/23 11:59:47;;;;;;;0.52;0.52;;;11.80;1.00;;;;;;5037271;28;20120;-70
2022/03/23 12:02:17;;;;;;;1.40;0.93;;;11.80;1.00;;;;;;5037367;28;20069;-70
2022/03/23 12:04:42;;;;;;;0.60;0.60;;;12.00;1.00;;;;;;5026078;28;20045;-70
2022/03/23 12:07:11;;;;;;;1.13;0.63;;;12.10;1.00;;;;;;5015864;28;20041;-70
2022/03/23 12:09:41;;;;;;;0.80;0.80;;;12.30;1.00;;;;;;5017107;28;20038;-70
2022/03/23 12:12:10;;;;;;;0.50;0.50;;;12.20;1.00;;;;;;5017312;28;20045;-70
2022/03/23 12:14:38;;;;;;;0.40;0.40;;;12.20;1.00;;;;;;5017385;28;20074;-70
2022/03/23 12:17:06;;;;;;;4.90;1.08;;;12.20;1.00;;;;;;5016781;28;20049;-70
2022/03/23 12:19:53;;;;;;;0.60;0.60;;;12.00;1.00;;;;;;5017432;28;20048;-70
2022/03/23 12:22:32;;;;;;;1.45;0.77;;;12.00;1.00;;;;;;5016324;28;20155;-70
2022/03/23 12:25:15;;;;;;;6.18;0.95;;;12.10;1.00;;;;;;5018122;28;20038;-70
2022/03/23 12:27:46;;;;;;;4.43;0.80;;;12.10;1.00;;;;;;5027409;28;20042;-70
2022/03/23 12:30:38;;;;;;;0.45;0.45;;;12.20;1.00;;;;;;5017760;28;20042;-70
2022/03/23 12:33:12;;;;;;;0.43;0.43;;;12.00;1.00;;;;;;5006888;28;20057;-71
2022/03/23 12:35:39;;;;;;;0.50;0.50;;;12.10;1.00;;;;;;5016984;28;20042;-71
2022/03/23 12:38:21;;;;;;;0.65;0.65;;;12.00;1.00;;;;;;5016649;28;20428;-71
2022/03/23 12:40:48;;;;;;;0.40;0.40;;;11.80;99.90;;;;;;5016703;28;20117;-71
2022/03/23 12:43:34;;;;;;;0.55;0.55;;;11.60;1.00;;;;;;5016785;28;20052;-71
2022/03/23 12:46:01;;;;;;;0.80;0.80;;;11.60;1.00;;;;;;5016929;28;20044;-71
2022/03/23 12:59:48;;;;;;;1.25;0.50;;;11.70;1.00;;;;;;5031068;28;20049;-71
2022/03/23 13:02:20;;;;;;;1.50;1.40;;;11.70;1.00;;;;;;5026941;28;20037;-71
2022/03/23 13:04:46;;;;;;;0.60;0.60;;;11.70;1.00;;;;;;5016413;28;20073;-70
2022/03/23 13:07:27;;;;;;;0.47;0.47;;;11.70;1.00;;;;;;5018872;28;20066;-70
2022/03/23 13:09:56;;;;;;;;;;;11.90;1.00;;;;;;5015866;28;20060;-70
2022/03/23 13:12:26;;;;;;;11.48;2.25;;;12.10;1.00;;;;;;5029781;28;19917;-70
2022/03/23 13:14:52;;;;;;;0.75;0.75;;;11.90;1.00;;;;;;5016035;28;20125;-70
2022/03/23 13:17:19;;;;;;;0.50;0.50;;;11.90;1.00;;;;;;5030839;28;20049;-70
2022/03/23 13:19:45;;;;;;;0.95;0.70;;;11.90;1.00;;;;;;5019045;28;20037;-70
2022/03/23 13:22:11;;;;;;;0.35;0.35;;;11.90;1.00;;;;;;5018255;28;20066;-70
2022/03/23 13:24:37;;;;;;;0.98;0.85;;;11.70;1.00;;;;;;5015814;28;20112;-70
2022/03/23 13:27:13;;;;;;;0.98;0.98;;;11.70;1.00;;;;;;5015344;28;20666;-70
2022/03/23 13:29:39;;;;;;;2.10;1.33;;;11.80;1.00;;;;;;5021327;28;20595;-71
2022/03/23 13:32:06;;;;;;;0.40;0.40;;;11.70;1.00;;;;;;5035444;28;20095;-70
2022/03/23 13:34:35;;;;;;;3.22;0.47;;;11.80;1.00;;;;;;5024195;28;20048;-70
2022/03/23 13:37:01;;;;;;;0.65;0.65;;;11.80;1.00;;;;;;5015601;28;20058;-70
2022/03/23 13:39:27;;;;;;;0.50;0.50;;;11.70;1.00;;;;;;5015946;28;20440;-71
2022/03/23 13:45:03;;;;;;;0.98;0.90;;;11.90;99.90;;;;;;5021820;28;20048;-70